Prospect Heights, Colorado
Current Conditions -  °F | °C
As of 11:55 PM on Thursday 27 Nov 2014 (Local Time) from K1V6 Reporting Station
Clear Clear  
Wind Chill: 40°   Ceiling: Unl
Heat Index: 43°   Visibility: 10mi
Dew Point: 19°   Wind: 5mph
Humidity: 39%   Direction: 340°NNW
Pressure: 30.14"   Gusts: NA
Location:  38.533°N, 105.389°W
Report Text: K1V6 280655Z AUTO 34004KT 10SM CLR 06/M07 A3014 RMK AO2
Loading
Personal Weather Stations






























Interactive Weather Map New forecast layout! Learn more

10-Day Weather Forecast

Advertisements
Track Severe Weather on mobile